Time;durP1;ratioP1;P1;durP2;ratioP2;P2;SDS_P1;SDS_P2;PMS_P1;PMS_P2;Temp;Humidity;BMP_temperature;BMP_pressure;BME280_temperature;BME280_humidity;BME280_pressure;Samples;Min_cycle;Max_cycle;Signal;HPM_P1;HPM_P2
2022/01/07 00:00:16;;;;;;;16.52;8.90;;;;;;;;;;5141334;27;20023;-84
2022/01/07 00:02:43;;;;;;;13.45;7.43;;;;;;;;;;5141159;27;20442;-85
2022/01/07 00:05:10;;;;;;;13.55;7.68;;;;;;;;;;5159650;27;20046;-85
2022/01/07 00:07:36;;;;;;;12.32;6.45;;;;;;;;;;5159508;27;20046;-85
2022/01/07 00:10:03;;;;;;;11.90;7.15;;;;;;;;;;5140432;27;20035;-85
2022/01/07 00:12:29;;;;;;;10.93;6.90;;;;;;;;;;5159376;27;20023;-85
2022/01/07 00:14:55;;;;;;;10.55;5.85;;;;;;;;;;5159099;27;20026;-85
2022/01/07 00:17:22;;;;;;;11.10;6.60;;;;;;;;;;5141182;27;20022;-85
2022/01/07 00:19:48;;;;;;;10.45;6.10;;;;;;;;;;5158897;27;20117;-84
2022/01/07 00:22:14;;;;;;;10.93;6.75;;;;;;;;;;5141116;27;20027;-84
2022/01/07 00:24:40;;;;;;;11.32;6.80;;;;;;;;;;5140477;27;20030;-85
2022/01/07 00:27:07;;;;;;;15.52;7.13;;;;;;;;;;5159169;27;20328;-84
2022/01/07 00:29:33;;;;;;;10.63;6.65;;;;;;;;;;5140897;27;20031;-85
2022/01/07 00:31:59;;;;;;;10.48;5.47;;;;;;;;;;5159102;27;20030;-85
2022/01/07 00:34:25;;;;;;;7.82;5.07;;;;;;;;;;5159090;27;20068;-84
2022/01/07 00:36:51;;;;;;;7.22;4.57;;;;;;;;;;5159519;27;20035;-85
2022/01/07 00:39:17;;;;;;;7.32;4.15;;;;;;;;;;5159412;27;20049;-85
2022/01/07 00:41:43;;;;;;;7.93;4.20;;;;;;;;;;5159144;27;20019;-85
2022/01/07 00:44:09;;;;;;;7.05;4.00;;;;;;;;;;5140926;27;20416;-84
2022/01/07 00:46:35;;;;;;;7.68;4.15;;;;;;;;;;5159227;27;20022;-85
2022/01/07 00:49:01;;;;;;;9.98;3.80;;;;;;;;;;5158962;27;20102;-84
2022/01/07 00:51:27;;;;;;;8.52;4.13;;;;;;;;;;5159163;27;20026;-85
2022/01/07 00:53:53;;;;;;;8.88;4.40;;;;;;;;;;5144310;27;20022;-85
2022/01/07 00:56:20;;;;;;;8.40;4.60;;;;;;;;;;5163204;27;20023;-85
2022/01/07 00:58:46;;;;;;;6.82;3.70;;;;;;;;;;5163054;27;20031;-84
2022/01/07 01:01:12;;;;;;;7.22;3.78;;;;;;;;;;5162916;27;20110;-84
2022/01/07 01:03:38;;;;;;;7.85;3.90;;;;;;;;;;5162699;27;20038;-85
2022/01/07 01:06:04;;;;;;;6.90;3.97;;;;;;;;;;5162799;27;20044;-85
2022/01/07 01:08:30;;;;;;;8.02;3.78;;;;;;;;;;5163012;27;20045;-84
2022/01/07 01:10:56;;;;;;;9.32;3.85;;;;;;;;;;5162920;27;20030;-85
2022/01/07 01:13:22;;;;;;;6.78;3.45;;;;;;;;;;5144517;27;20451;-85
2022/01/07 01:15:48;;;;;;;6.45;3.45;;;;;;;;;;5162652;27;20377;-84
2022/01/07 01:18:15;;;;;;;6.57;3.47;;;;;;;;;;5162513;27;20054;-85
2022/01/07 01:20:41;;;;;;;7.82;3.25;;;;;;;;;;5162416;27;20061;-85
2022/01/07 01:23:07;;;;;;;6.90;3.67;;;;;;;;;;5143701;27;20030;-84
2022/01/07 01:25:33;;;;;;;7.35;3.40;;;;;;;;;;5162362;27;20121;-84
2022/01/07 01:27:59;;;;;;;6.32;3.25;;;;;;;;;;5143192;27;20324;-85
2022/01/07 01:30:32;;;;;;;5.00;3.00;;;;;;;;;;5144105;27;20022;-85
2022/01/07 01:32:59;;;;;;;5.50;2.95;;;;;;;;;;5162180;27;20030;-85
2022/01/07 01:35:25;;;;;;;6.68;3.20;;;;;;;;;;5162234;27;20109;-85
2022/01/07 01:37:51;;;;;;;7.82;3.67;;;;;;;;;;5162329;27;20027;-85
2022/01/07 01:40:18;;;;;;;6.53;3.33;;;;;;;;;;5161904;27;20411;-85
2022/01/07 01:42:44;;;;;;;6.28;3.35;;;;;;;;;;5144058;27;20026;-86
2022/01/07 01:45:12;;;;;;;6.70;3.08;;;;;;;;;;5143687;27;20041;-85
2022/01/07 01:47:38;;;;;;;6.20;3.40;;;;;;;;;;5143701;27;20432;-85
2022/01/07 01:50:04;;;;;;;6.90;3.80;;;;;;;;;;5161689;27;20027;-85
2022/01/07 01:52:30;;;;;;;11.75;4.32;;;;;;;;;;5143700;27;20015;-85
2022/01/07 01:54:56;;;;;;;8.93;3.80;;;;;;;;;;5162123;27;20023;-85
2022/01/07 01:57:22;;;;;;;6.10;3.30;;;;;;;;;;5161790;27;20043;-85
2022/01/07 01:59:49;;;;;;;8.32;3.13;;;;;;;;;;5161639;27;20025;-85
2022/01/07 02:02:15;;;;;;;8.55;3.72;;;;;;;;;;5161773;27;20025;-85
2022/01/07 02:04:41;;;;;;;6.90;3.58;;;;;;;;;;5161327;27;20068;-85
2022/01/07 02:07:08;;;;;;;7.40;3.60;;;;;;;;;;5161969;27;20346;-85
2022/01/07 02:09:35;;;;;;;11.87;3.33;;;;;;;;;;5143414;27;20019;-85
2022/01/07 02:12:09;;;;;;;10.82;5.22;;;;;;;;;;5161127;27;20475;-84
2022/01/07 02:14:35;;;;;;;7.18;4.03;;;;;;;;;;5161488;27;20400;-87
2022/01/07 02:17:08;;;;;;;7.30;3.22;;;;;;;;;;5161384;27;20027;-87
2022/01/07 02:19:35;;;;;;;5.80;2.70;;;;;;;;;;5161466;27;20071;-88
2022/01/07 02:22:01;;;;;;;5.93;2.65;;;;;;;;;;5161599;27;20424;-87
2022/01/07 02:24:27;;;;;;;5.63;2.50;;;;;;;;;;5161326;27;20023;-87
2022/01/07 02:26:53;;;;;;;4.65;2.38;;;;;;;;;;5161418;27;20064;-86
2022/01/07 02:29:19;;;;;;;5.70;2.47;;;;;;;;;;5161346;27;20026;-85
2022/01/07 02:31:46;;;;;;;5.75;2.50;;;;;;;;;;5160898;27;20033;-85
2022/01/07 02:34:12;;;;;;;4.20;2.67;;;;;;;;;;5161303;27;20026;-85
2022/01/07 02:36:38;;;;;;;5.15;2.70;;;;;;;;;;5161314;27;20060;-85
2022/01/07 02:39:04;;;;;;;6.32;2.55;;;;;;;;;;5160998;27;20420;-88
2022/01/07 02:41:31;;;;;;;5.35;2.97;;;;;;;;;;5160625;27;20026;-88
2022/01/07 02:43:57;;;;;;;4.80;2.92;;;;;;;;;;5160981;27;20044;-87
2022/01/07 02:46:23;;;;;;;5.53;2.58;;;;;;;;;;5142436;27;20045;-88
2022/01/07 02:48:49;;;;;;;6.43;2.70;;;;;;;;;;5160884;27;20018;-87
2022/01/07 02:51:16;;;;;;;7.18;3.08;;;;;;;;;;5160763;27;20049;-87
2022/01/07 02:53:42;;;;;;;6.03;2.42;;;;;;;;;;5160998;27;20019;-87
2022/01/07 02:56:11;;;;;;;7.53;2.92;;;;;;;;;;5160718;27;20057;-87
2022/01/07 02:58:37;;;;;;;6.25;2.67;;;;;;;;;;5160547;27;20412;-87
2022/01/07 03:01:03;;;;;;;5.63;2.80;;;;;;;;;;5142333;27;20037;-87
2022/01/07 03:03:29;;;;;;;5.65;2.70;;;;;;;;;;5160484;27;20026;-86
2022/01/07 03:05:55;;;;;;;5.47;2.70;;;;;;;;;;5141361;27;20167;-85
2022/01/07 03:08:21;;;;;;;5.15;2.80;;;;;;;;;;5160686;27;20022;-86
2022/01/07 03:10:47;;;;;;;6.72;2.92;;;;;;;;;;5160458;27;20034;-88
2022/01/07 03:13:13;;;;;;;6.78;2.85;;;;;;;;;;5160411;27;20114;-88
2022/01/07 03:15:40;;;;;;;6.07;2.53;;;;;;;;;;5159393;27;20064;-87
2022/01/07 03:18:07;;;;;;;5.78;2.70;;;;;;;;;;5160174;27;20352;-88
2022/01/07 03:20:38;;;;;;;5.25;2.88;;;;;;;;;;5159889;27;20062;-87
2022/01/07 03:23:06;;;;;;;6.40;3.33;;;;;;;;;;5160272;27;20038;-88
2022/01/07 03:25:32;;;;;;;7.78;3.40;;;;;;;;;;5160232;27;20023;-88
2022/01/07 03:27:58;;;;;;;7.15;3.25;;;;;;;;;;5159876;27;20023;-87
2022/01/07 03:30:24;;;;;;;6.10;3.40;;;;;;;;;;5159849;27;20037;-87
2022/01/07 03:32:50;;;;;;;9.90;4.32;;;;;;;;;;5158641;27;20022;-94
2022/01/07 03:35:17;;;;;;;8.63;3.38;;;;;;;;;;5128426;27;20043;-94
2022/01/07 03:37:44;;;;;;;7.68;3.60;;;;;;;;;;5155471;27;20058;-94
2022/01/07 03:40:11;;;;;;;8.13;3.80;;;;;;;;;;5139585;27;20026;-90
2022/01/07 03:42:37;;;;;;;10.82;4.60;;;;;;;;;;5157469;27;20050;-91
2022/01/07 03:45:04;;;;;;;10.45;4.97;;;;;;;;;;5158268;27;20100;-91
2022/01/07 03:47:30;;;;;;;21.63;13.35;;;;;;;;;;5140399;27;20413;-92
2022/01/07 03:49:56;;;;;;;12.85;7.68;;;;;;;;;;5139171;27;20378;-91
2022/01/07 03:52:22;;;;;;;11.70;6.43;;;;;;;;;;5159900;27;20019;-92
2022/01/07 03:54:50;;;;;;;11.65;6.88;;;;;;;;;;5160124;27;20027;-92
2022/01/07 03:57:16;;;;;;;10.68;5.60;;;;;;;;;;5149915;27;20302;-91
2022/01/07 03:59:42;;;;;;;8.10;4.50;;;;;;;;;;5121112;27;20043;-92
2022/01/07 04:02:08;;;;;;;8.88;4.55;;;;;;;;;;5139092;27;20420;-91
2022/01/07 04:04:34;;;;;;;11.30;4.75;;;;;;;;;;5120371;27;20080;-91
2022/01/07 04:07:00;;;;;;;11.07;4.38;;;;;;;;;;5119921;27;20059;-92
2022/01/07 04:09:26;;;;;;;9.50;4.22;;;;;;;;;;5148861;27;20118;-92
2022/01/07 04:11:53;;;;;;;37.53;16.15;;;;;;;;;;5132503;27;20019;-93
2022/01/07 04:14:19;;;;;;;19.95;9.05;;;;;;;;;;5138953;28;20102;-92
2022/01/07 04:16:45;;;;;;;8.68;5.40;;;;;;;;;;5120667;28;20027;-92
2022/01/07 04:19:11;;;;;;;7.53;4.72;;;;;;;;;;5120388;28;20036;-92
2022/01/07 04:21:38;;;;;;;8.38;3.60;;;;;;;;;;5156349;27;20444;-93
2022/01/07 04:24:04;;;;;;;12.02;4.07;;;;;;;;;;5159285;27;20043;-93
2022/01/07 04:26:30;;;;;;;6.65;3.53;;;;;;;;;;5160839;27;20050;-92
2022/01/07 04:28:56;;;;;;;9.52;4.03;;;;;;;;;;5163645;27;20031;-92
2022/01/07 04:31:22;;;;;;;8.73;4.20;;;;;;;;;;5129670;27;20027;-92
2022/01/07 04:33:49;;;;;;;10.80;4.82;;;;;;;;;;5142781;27;20462;-91
2022/01/07 04:36:15;;;;;;;6.22;3.80;;;;;;;;;;5142790;27;20035;-92
2022/01/07 04:38:41;;;;;;;8.77;3.80;;;;;;;;;;5142776;27;20031;-92
2022/01/07 04:41:07;;;;;;;8.88;3.78;;;;;;;;;;5142680;27;20070;-93
2022/01/07 04:46:36;;;;;;;8.77;4.25;;;;;;;;;;5158927;27;20053;-95
2022/01/07 04:49:03;;;;;;;11.80;5.43;;;;;;;;;;5163591;27;20018;-91
2022/01/07 04:51:29;;;;;;;10.70;5.47;;;;;;;;;;5163530;27;20018;-92
2022/01/07 04:53:55;;;;;;;7.85;4.03;;;;;;;;;;5145021;27;20319;-93
2022/01/07 04:59:26;;;;;;;12.15;6.72;;;;;;;;;;5168038;27;20468;-91
2022/01/07 05:13:37;;;;;;;19.35;11.45;;;;;;;;;;5059709;23;20054;-92
2022/01/07 05:16:04;;;;;;;12.23;5.30;;;;;;;;;;5020321;28;20018;-93
2022/01/07 05:18:30;;;;;;;9.73;4.85;;;;;;;;;;5003688;28;20336;-94
2022/01/07 05:20:56;;;;;;;7.13;4.10;;;;;;;;;;5003589;28;20026;-93
2022/01/07 05:23:22;;;;;;;11.15;5.25;;;;;;;;;;5003725;28;20030;-93
2022/01/07 05:25:48;;;;;;;10.13;5.63;;;;;;;;;;5020930;28;20022;-93
2022/01/07 05:31:19;;;;;;;10.68;5.40;;;;;;;;;;5020932;28;20063;-93
2022/01/07 05:33:45;;;;;;;9.65;5.45;;;;;;;;;;5020592;28;20424;-92
2022/01/07 05:36:11;;;;;;;7.97;4.38;;;;;;;;;;5019436;28;20033;-92
2022/01/07 05:38:37;;;;;;;12.05;4.30;;;;;;;;;;4986606;28;20267;-92
2022/01/07 05:41:03;;;;;;;11.25;5.20;;;;;;;;;;5020567;28;20030;-92
2022/01/07 05:46:33;;;;;;;9.20;4.97;;;;;;;;;;5001198;28;20432;-93
2022/01/07 05:48:59;;;;;;;13.38;5.60;;;;;;;;;;4983462;28;20022;-93
2022/01/07 05:51:25;;;;;;;13.68;4.88;;;;;;;;;;5000889;28;20040;-92
2022/01/07 05:53:51;;;;;;;17.45;5.40;;;;;;;;;;5001556;28;20030;-92
2022/01/07 05:56:17;;;;;;;13.27;5.72;;;;;;;;;;5000519;28;20023;-92
2022/01/07 05:59:20;;;;;;;21.35;6.30;;;;;;;;;;5000863;28;20030;-92
2022/01/07 06:01:46;;;;;;;13.93;5.78;;;;;;;;;;5000301;28;20026;-92
2022/01/07 06:04:12;;;;;;;11.60;5.93;;;;;;;;;;5000889;28;20030;-93
2022/01/07 06:06:39;;;;;;;23.48;6.68;;;;;;;;;;4986529;28;20030;-91
2022/01/07 06:09:05;;;;;;;15.75;6.78;;;;;;;;;;5015956;28;20335;-92
2022/01/07 06:11:31;;;;;;;14.25;6.95;;;;;;;;;;4989548;28;20214;-91
2022/01/07 06:13:57;;;;;;;18.10;7.85;;;;;;;;;;5012473;28;20045;-91
2022/01/07 06:16:23;;;;;;;19.33;7.68;;;;;;;;;;5017120;28;20030;-91
2022/01/07 06:18:53;;;;;;;18.40;8.30;;;;;;;;;;5002419;28;20022;-93
2022/01/07 06:21:23;;;;;;;18.92;8.60;;;;;;;;;;5019538;28;20030;-93
2022/01/07 06:23:49;;;;;;;18.73;9.13;;;;;;;;;;5002457;28;20113;-92
2022/01/07 06:26:15;;;;;;;21.20;8.88;;;;;;;;;;5002407;28;20049;-93
2022/01/07 06:28:41;;;;;;;22.15;9.95;;;;;;;;;;5004480;28;20041;-93
2022/01/07 06:31:08;;;;;;;19.40;9.85;;;;;;;;;;4982995;28;20038;-93
2022/01/07 06:33:34;;;;;;;24.70;12.98;;;;;;;;;;4999919;28;20421;-92
2022/01/07 06:36:00;;;;;;;23.92;11.85;;;;;;;;;;4999890;28;20025;-92
2022/01/07 06:38:26;;;;;;;25.98;11.98;;;;;;;;;;4989822;28;20022;-92
2022/01/07 06:40:52;;;;;;;35.95;16.23;;;;;;;;;;4999667;28;20289;-92
2022/01/07 06:43:18;;;;;;;36.42;16.48;;;;;;;;;;5004369;28;20290;-92
2022/01/07 06:45:44;;;;;;;31.00;14.95;;;;;;;;;;4999945;28;20022;-92
2022/01/07 06:48:10;;;;;;;26.00;11.40;;;;;;;;;;5008536;28;20072;-91
2022/01/07 06:50:36;;;;;;;25.58;12.90;;;;;;;;;;5017045;28;20294;-93
2022/01/07 06:53:02;;;;;;;27.45;11.57;;;;;;;;;;4990338;28;20030;-92
2022/01/07 06:55:28;;;;;;;19.13;9.60;;;;;;;;;;5022767;28;20326;-91
2022/01/07 06:57:55;;;;;;;18.60;8.77;;;;;;;;;;5003457;28;20029;-92
2022/01/07 07:00:21;;;;;;;17.55;7.63;;;;;;;;;;5015783;28;20018;-92
2022/01/07 07:02:47;;;;;;;16.90;8.48;;;;;;;;;;4999551;28;20098;-93
2022/01/07 07:05:13;;;;;;;16.83;8.43;;;;;;;;;;5016776;28;20022;-92
2022/01/07 07:07:39;;;;;;;15.57;8.13;;;;;;;;;;5016028;28;20018;-92
2022/01/07 07:10:05;;;;;;;19.48;9.75;;;;;;;;;;5015620;28;20049;-92
2022/01/07 07:12:31;;;;;;;18.10;10.27;;;;;;;;;;5001346;28;20030;-93
2022/01/07 07:14:57;;;;;;;23.45;11.00;;;;;;;;;;4998833;28;20046;-92
2022/01/07 07:17:24;;;;;;;23.65;12.65;;;;;;;;;;4992791;28;20034;-92
2022/01/07 07:19:51;;;;;;;26.85;13.88;;;;;;;;;;5000212;28;20030;-92
2022/01/07 07:22:17;;;;;;;24.88;11.57;;;;;;;;;;4981991;28;20150;-92
2022/01/07 07:24:43;;;;;;;25.23;12.48;;;;;;;;;;4999064;28;20030;-93
2022/01/07 07:27:09;;;;;;;24.27;12.20;;;;;;;;;;4997255;28;20062;-90
2022/01/07 07:29:35;;;;;;;20.67;10.35;;;;;;;;;;4998762;28;20030;-93
2022/01/07 07:32:06;;;;;;;16.33;9.02;;;;;;;;;;5018547;28;20026;-92
2022/01/07 07:37:01;;;;;;;29.00;15.00;;;;;;;;;;5015176;28;20057;-93
2022/01/07 07:39:27;;;;;;;35.72;19.90;;;;;;;;;;5001211;28;20030;-95
2022/01/07 07:41:53;;;;;;;34.80;19.15;;;;;;;;;;5001020;28;20424;-93
2022/01/07 07:44:19;;;;;;;57.28;22.15;;;;;;;;;;5018163;28;20026;-93
2022/01/07 07:46:45;;;;;;;44.80;21.08;;;;;;;;;;5013824;28;20483;-91
2022/01/07 07:49:12;;;;;;;38.78;18.25;;;;;;;;;;4999440;28;20030;-93
2022/01/07 07:51:39;;;;;;;32.35;15.43;;;;;;;;;;5018741;28;20053;-96
2022/01/07 07:54:05;;;;;;;35.67;14.80;;;;;;;;;;5018113;28;20022;-94
2022/01/07 07:56:31;;;;;;;22.55;11.85;;;;;;;;;;4998826;28;20022;-95
2022/01/07 07:58:58;;;;;;;23.23;11.27;;;;;;;;;;4980986;28;20133;-94
2022/01/07 08:01:24;;;;;;;21.58;9.95;;;;;;;;;;4997971;28;20145;-92
2022/01/07 08:03:50;;;;;;;20.27;10.23;;;;;;;;;;4998584;28;20093;-93
2022/01/07 08:06:16;;;;;;;22.17;10.70;;;;;;;;;;4998512;28;20042;-93
2022/01/07 08:08:43;;;;;;;15.75;8.63;;;;;;;;;;4998615;28;20022;-92
2022/01/07 08:11:11;;;;;;;51.40;20.02;;;;;;;;;;4990062;28;20026;-93
2022/01/07 08:16:23;;;;;;;33.20;14.75;;;;;;;;;;5018180;28;20438;-93
2022/01/07 08:18:57;;;;;;;44.05;16.35;;;;;;;;;;5017892;28;20080;-93
2022/01/07 08:21:25;;;;;;;33.58;13.02;;;;;;;;;;5000322;28;20085;-94
2022/01/07 08:23:53;;;;;;;46.28;14.93;;;;;;;;;;5017641;28;20343;-94
2022/01/07 08:26:19;;;;;;;55.30;14.85;;;;;;;;;;5018028;28;20061;-93
2022/01/07 08:28:50;;;;;;;66.70;18.48;;;;;;;;;;5011137;28;20018;-93
2022/01/07 08:36:28;;;;;;;38.35;11.43;;;;;;;;;;4998730;28;20122;-93
2022/01/07 08:38:55;;;;;;;37.95;12.35;;;;;;;;;;5017425;28;20068;-94
2022/01/07 08:41:22;;;;;;;32.10;10.85;;;;;;;;;;5000253;28;20030;-92
2022/01/07 08:43:49;;;;;;;17.35;8.70;;;;;;;;;;5017600;28;20053;-93
2022/01/07 08:46:15;;;;;;;18.83;8.30;;;;;;;;;;5015745;28;20109;-91
2022/01/07 08:48:42;;;;;;;21.67;9.90;;;;;;;;;;4998282;28;20026;-92
2022/01/07 08:51:09;;;;;;;17.30;8.50;;;;;;;;;;4997870;28;20030;-91
2022/01/07 08:53:35;;;;;;;16.80;7.93;;;;;;;;;;4998256;28;20038;-92
2022/01/07 08:56:01;;;;;;;22.52;9.07;;;;;;;;;;4997939;28;20427;-91
2022/01/07 08:58:27;;;;;;;14.65;7.82;;;;;;;;;;4999053;28;20173;-93
2022/01/07 09:00:54;;;;;;;13.20;7.03;;;;;;;;;;4980675;28;20301;-91
2022/01/07 09:03:20;;;;;;;25.73;12.88;;;;;;;;;;4980742;28;20113;-92
2022/01/07 09:05:46;;;;;;;30.55;16.02;;;;;;;;;;4998562;28;20351;-91
2022/01/07 09:08:12;;;;;;;19.75;11.43;;;;;;;;;;4998107;28;20045;-91
2022/01/07 09:10:41;;;;;;;13.57;7.68;;;;;;;;;;4997782;28;20030;-92
2022/01/07 09:13:08;;;;;;;10.55;5.60;;;;;;;;;;4999001;28;20030;-91
2022/01/07 09:15:34;;;;;;;13.35;7.93;;;;;;;;;;5003573;28;20491;-91
2022/01/07 09:18:09;;;;;;;13.95;7.50;;;;;;;;;;5002513;28;20390;-90
2022/01/07 09:20:35;;;;;;;10.25;5.80;;;;;;;;;;5019023;28;20061;-91
2022/01/07 09:23:01;;;;;;;14.30;7.53;;;;;;;;;;5020761;28;20026;-93
2022/01/07 09:25:27;;;;;;;12.95;7.55;;;;;;;;;;5016990;28;20033;-92
2022/01/07 09:27:53;;;;;;;14.50;7.10;;;;;;;;;;5001128;28;20072;-92
2022/01/07 09:30:19;;;;;;;14.05;6.75;;;;;;;;;;4983935;28;20324;-92
2022/01/07 09:32:45;;;;;;;13.75;7.20;;;;;;;;;;4994654;28;20121;-93
2022/01/07 09:35:11;;;;;;;14.25;7.32;;;;;;;;;;5003434;28;20037;-92
2022/01/07 09:37:38;;;;;;;10.05;6.47;;;;;;;;;;5018677;28;20021;-93
2022/01/07 09:40:05;;;;;;;14.85;7.35;;;;;;;;;;4985925;28;20433;-93
2022/01/07 09:42:31;;;;;;;13.98;7.47;;;;;;;;;;5000751;28;20110;-93
2022/01/07 09:44:57;;;;;;;16.52;7.80;;;;;;;;;;4983838;28;20125;-93
2022/01/07 09:47:24;;;;;;;16.88;7.97;;;;;;;;;;5001052;28;20048;-92
2022/01/07 09:49:50;;;;;;;13.05;5.90;;;;;;;;;;5000612;28;20053;-93
2022/01/07 09:52:16;;;;;;;20.73;7.13;;;;;;;;;;5000785;28;20022;-93
2022/01/07 09:54:43;;;;;;;12.35;5.70;;;;;;;;;;5002976;28;20030;-92
2022/01/07 09:57:09;;;;;;;13.40;7.40;;;;;;;;;;5001623;28;20030;-91
2022/01/07 09:59:36;;;;;;;14.07;7.47;;;;;;;;;;5010859;28;20423;-90
2022/01/07 10:02:06;;;;;;;12.80;7.75;;;;;;;;;;5002679;28;20373;-91
2022/01/07 10:04:37;;;;;;;8.88;4.90;;;;;;;;;;5019872;28;20148;-91
2022/01/07 10:07:16;;;;;;;10.07;5.85;;;;;;;;;;5003063;28;20068;-91
2022/01/07 10:09:42;;;;;;;11.07;5.25;;;;;;;;;;5019925;28;20026;-92
2022/01/07 10:12:08;;;;;;;10.77;4.88;;;;;;;;;;5020198;28;20030;-91
2022/01/07 10:14:36;;;;;;;11.30;4.97;;;;;;;;;;5018934;28;20310;-93
2022/01/07 10:17:03;;;;;;;9.13;4.70;;;;;;;;;;5019937;28;20022;-92
2022/01/07 10:19:35;;;;;;;14.60;8.63;;;;;;;;;;5018038;28;20021;-91
2022/01/07 10:22:04;;;;;;;13.13;8.40;;;;;;;;;;5019655;28;20458;-91
2022/01/07 10:24:31;;;;;;;8.75;4.20;;;;;;;;;;5014787;28;20416;-90
2022/01/07 10:27:10;;;;;;;19.15;11.07;;;;;;;;;;5003272;28;20030;-91
2022/01/07 10:29:43;;;;;;;11.98;6.95;;;;;;;;;;4983881;28;20014;-91
2022/01/07 10:32:21;;;;;;;13.77;6.95;;;;;;;;;;5008493;28;20049;-90
2022/01/07 10:35:09;;;;;;;10.15;5.80;;;;;;;;;;5017933;28;20101;-91
2022/01/07 10:37:36;;;;;;;13.55;6.20;;;;;;;;;;5014690;28;20057;-92
2022/01/07 10:40:19;;;;;;;10.68;6.00;;;;;;;;;;5019451;28;20029;-91
2022/01/07 10:45:57;;;;;;;7.45;4.55;;;;;;;;;;5006318;28;20301;-90
2022/01/07 10:48:53;;;;;;;8.32;4.95;;;;;;;;;;5019217;28;20026;-91
2022/01/07 10:51:23;;;;;;;13.98;7.57;;;;;;;;;;5010819;28;20069;-91
2022/01/07 10:53:51;;;;;;;11.13;7.43;;;;;;;;;;5004695;28;20038;-91
2022/01/07 10:56:19;;;;;;;10.38;5.55;;;;;;;;;;4996588;28;20022;-92
2022/01/07 10:58:48;;;;;;;9.70;4.97;;;;;;;;;;4990239;28;20029;-91
2022/01/07 11:01:20;;;;;;;9.75;5.38;;;;;;;;;;5001922;28;20045;-91
2022/01/07 11:03:50;;;;;;;8.77;5.30;;;;;;;;;;5006701;28;20081;-92
2022/01/07 11:06:16;;;;;;;10.27;5.53;;;;;;;;;;4999340;28;20030;-92
2022/01/07 11:08:42;;;;;;;10.15;5.88;;;;;;;;;;4999148;28;20073;-92
2022/01/07 11:11:08;;;;;;;12.05;6.70;;;;;;;;;;4999396;28;20034;-91
2022/01/07 11:13:35;;;;;;;9.98;5.93;;;;;;;;;;4999241;28;20353;-90
2022/01/07 11:16:05;;;;;;;14.93;8.00;;;;;;;;;;4992572;28;20081;-91
2022/01/07 11:18:32;;;;;;;9.05;4.93;;;;;;;;;;4995455;28;20034;-92
2022/01/07 11:21:01;;;;;;;8.88;4.95;;;;;;;;;;5001042;28;20021;-90
2022/01/07 11:23:28;;;;;;;14.38;5.47;;;;;;;;;;5018027;28;20036;-91
2022/01/07 11:26:10;;;;;;;10.60;5.05;;;;;;;;;;5000953;28;20387;-91
2022/01/07 11:28:37;;;;;;;9.27;4.60;;;;;;;;;;5000979;28;20022;-91
2022/01/07 11:31:10;;;;;;;9.57;4.90;;;;;;;;;;5009841;28;20050;-90
2022/01/07 11:33:36;;;;;;;9.05;5.13;;;;;;;;;;4998326;28;20101;-91
2022/01/07 11:36:02;;;;;;;14.88;7.53;;;;;;;;;;5027853;28;20096;-90
2022/01/07 11:38:36;;;;;;;10.20;4.70;;;;;;;;;;5016690;28;20030;-91
2022/01/07 11:41:03;;;;;;;10.90;5.93;;;;;;;;;;5010132;28;20026;-92
2022/01/07 11:49:37;;;;;;;8.65;4.28;;;;;;;;;;4998929;28;20073;-92
2022/01/07 11:52:21;;;;;;;6.32;3.13;;;;;;;;;;5000627;28;20018;-92
2022/01/07 11:55:07;;;;;;;9.50;4.10;;;;;;;;;;4985238;28;20095;-92
2022/01/07 11:58:01;;;;;;;9.60;5.05;;;;;;;;;;5009345;28;20021;-91
2022/01/07 12:00:46;;;;;;;9.90;5.65;;;;;;;;;;5003502;28;20034;-91
2022/01/07 12:03:12;;;;;;;9.15;4.93;;;;;;;;;;5005243;28;20044;-91
2022/01/07 12:05:38;;;;;;;15.00;7.07;;;;;;;;;;5017928;28;20052;-91
2022/01/07 12:08:04;;;;;;;12.40;6.32;;;;;;;;;;5018056;28;20025;-92
2022/01/07 12:10:30;;;;;;;16.98;7.75;;;;;;;;;;5000981;28;20101;-92
2022/01/07 12:13:00;;;;;;;15.65;8.18;;;;;;;;;;4993416;28;20025;-91
2022/01/07 12:15:27;;;;;;;10.82;5.60;;;;;;;;;;4987686;28;20050;-92
2022/01/07 12:17:53;;;;;;;6.97;4.25;;;;;;;;;;5004426;28;20031;-92
2022/01/07 12:20:43;;;;;;;11.52;5.25;;;;;;;;;;4998322;28;20031;-92
2022/01/07 12:23:09;;;;;;;14.98;6.57;;;;;;;;;;4980883;28;20363;-91
2022/01/07 12:25:36;;;;;;;18.63;9.32;;;;;;;;;;5002672;28;20026;-90
2022/01/07 12:28:05;;;;;;;15.00;6.75;;;;;;;;;;5008534;28;20026;-91
2022/01/07 12:30:31;;;;;;;17.17;9.15;;;;;;;;;;4980966;28;20061;-92
2022/01/07 12:33:05;;;;;;;20.92;11.40;;;;;;;;;;4998111;28;20061;-91
2022/01/07 12:35:32;;;;;;;17.25;7.85;;;;;;;;;;4998335;28;20038;-93
2022/01/07 12:37:58;;;;;;;8.98;5.72;;;;;;;;;;4998317;28;20031;-91
2022/01/07 12:40:24;;;;;;;11.05;6.47;;;;;;;;;;4999196;28;20050;-90
2022/01/07 12:42:50;;;;;;;11.35;5.63;;;;;;;;;;5011420;28;20037;-91
2022/01/07 12:45:20;;;;;;;9.27;5.45;;;;;;;;;;4998404;28;20022;-91
2022/01/07 12:47:46;;;;;;;11.32;6.72;;;;;;;;;;4994277;28;20065;-92
2022/01/07 12:50:14;;;;;;;27.90;14.30;;;;;;;;;;4984754;28;20424;-93
2022/01/07 12:52:45;;;;;;;16.38;7.72;;;;;;;;;;4984627;28;20129;-92
2022/01/07 12:55:17;;;;;;;21.90;11.82;;;;;;;;;;4984866;28;20027;-92
2022/01/07 13:04:08;;;;;;;12.55;6.88;;;;;;;;;;5028133;28;20029;-92
2022/01/07 13:06:42;;;;;;;12.77;6.68;;;;;;;;;;5002819;28;20022;-91
2022/01/07 13:09:08;;;;;;;11.85;6.20;;;;;;;;;;5002380;28;20113;-92
2022/01/07 13:11:34;;;;;;;14.07;8.45;;;;;;;;;;4983899;28;20042;-91
2022/01/07 13:14:04;;;;;;;14.23;8.90;;;;;;;;;;5001625;28;20073;-91
2022/01/07 13:16:31;;;;;;;12.93;7.57;;;;;;;;;;5020555;28;20049;-92
2022/01/07 13:19:08;;;;;;;15.23;8.60;;;;;;;;;;5003335;28;20447;-91
2022/01/07 13:21:38;;;;;;;13.45;7.57;;;;;;;;;;5020667;28;20036;-91
2022/01/07 13:24:05;;;;;;;15.15;8.82;;;;;;;;;;5019916;28;20026;-92
2022/01/07 13:26:32;;;;;;;18.67;9.57;;;;;;;;;;5002413;28;20026;-92
2022/01/07 13:32:06;;;;;;;16.10;9.02;;;;;;;;;;5002063;28;20068;-92
2022/01/07 13:34:34;;;;;;;15.13;8.10;;;;;;;;;;5005553;28;20021;-92
2022/01/07 13:37:08;;;;;;;17.08;9.75;;;;;;;;;;5000140;28;20026;-92
2022/01/07 13:39:42;;;;;;;18.48;8.52;;;;;;;;;;5021098;28;20054;-92
2022/01/07 13:42:08;;;;;;;13.40;7.65;;;;;;;;;;5020929;28;20120;-92
2022/01/07 13:44:49;;;;;;;10.13;6.47;;;;;;;;;;5002822;28;20109;-92
2022/01/07 13:47:23;;;;;;;13.07;6.40;;;;;;;;;;5020328;28;20025;-92
2022/01/07 13:49:49;;;;;;;13.45;7.07;;;;;;;;;;5000299;28;20045;-91
2022/01/07 13:52:26;;;;;;;13.75;7.63;;;;;;;;;;5002572;28;20102;-91
2022/01/07 13:54:52;;;;;;;12.10;7.05;;;;;;;;;;5003214;28;20420;-89
2022/01/07 13:57:18;;;;;;;13.75;7.40;;;;;;;;;;5018661;28;20428;-95
2022/01/07 13:59:50;;;;;;;13.50;7.05;;;;;;;;;;5022127;28;20030;-91
2022/01/07 14:02:19;;;;;;;23.83;13.23;;;;;;;;;;5009954;28;20025;-90
2022/01/07 14:04:45;;;;;;;33.80;15.68;;;;;;;;;;4991835;28;20332;-91
2022/01/07 14:07:21;;;;;;;32.10;15.38;;;;;;;;;;5011462;28;20018;-92
2022/01/07 14:10:06;;;;;;;18.92;10.93;;;;;;;;;;5018994;28;20034;-92
2022/01/07 14:12:32;;;;;;;19.13;9.85;;;;;;;;;;4983102;28;20190;-91
2022/01/07 14:15:08;;;;;;;25.58;13.38;;;;;;;;;;5011761;28;20133;-90
2022/01/07 14:17:34;;;;;;;30.80;14.50;;;;;;;;;;5019442;28;20320;-90
2022/01/07 14:20:04;;;;;;;40.40;16.88;;;;;;;;;;5001718;28;20029;-91
2022/01/07 14:22:31;;;;;;;47.90;17.17;;;;;;;;;;5020417;28;20026;-92
2022/01/07 14:24:58;;;;;;;48.55;16.52;;;;;;;;;;5024180;28;20026;-92
2022/01/07 14:27:31;;;;;;;56.33;20.08;;;;;;;;;;5019203;28;20036;-91
2022/01/07 14:29:57;;;;;;;42.38;18.65;;;;;;;;;;5017593;28;20034;-91
2022/01/07 14:32:25;;;;;;;21.45;10.25;;;;;;;;;;4999485;28;20124;-90
2022/01/07 14:34:51;;;;;;;19.67;9.77;;;;;;;;;;4996726;28;20061;-91
2022/01/07 14:37:18;;;;;;;17.88;9.43;;;;;;;;;;5012559;28;20029;-92
2022/01/07 14:39:45;;;;;;;16.67;8.90;;;;;;;;;;5018851;28;20355;-91
2022/01/07 14:42:11;;;;;;;16.77;10.13;;;;;;;;;;5001340;28;20084;-91
2022/01/07 14:44:37;;;;;;;27.67;12.00;;;;;;;;;;5018889;28;20348;-91
2022/01/07 14:47:03;;;;;;;35.28;14.73;;;;;;;;;;5018767;28;20026;-93
2022/01/07 14:49:29;;;;;;;30.48;13.35;;;;;;;;;;5018670;28;20064;-91
2022/01/07 14:51:56;;;;;;;22.38;11.27;;;;;;;;;;5025883;28;20022;-92
2022/01/07 14:54:22;;;;;;;21.77;11.02;;;;;;;;;;5018873;28;20032;-92
2022/01/07 14:56:48;;;;;;;20.33;11.30;;;;;;;;;;5001229;28;20033;-91
2022/01/07 14:59:14;;;;;;;27.48;15.70;;;;;;;;;;4997405;28;20050;-91
2022/01/07 15:01:41;;;;;;;31.65;16.55;;;;;;;;;;5013880;28;20058;-91
2022/01/07 15:04:07;;;;;;;50.30;25.15;;;;;;;;;;5018168;28;20018;-91
2022/01/07 15:06:33;;;;;;;65.07;28.30;;;;;;;;;;5000550;28;20022;-91
2022/01/07 15:08:59;;;;;;;79.70;33.45;;;;;;;;;;5018356;28;20029;-90
2022/01/07 15:11:25;;;;;;;79.55;34.15;;;;;;;;;;5017418;28;20026;-90
2022/01/07 15:13:51;;;;;;;104.85;46.45;;;;;;;;;;5000778;28;20487;-92
2022/01/07 15:16:36;;;;;;;105.78;45.47;;;;;;;;;;5017835;28;20053;-91
2022/01/07 15:19:03;;;;;;;79.82;35.35;;;;;;;;;;5018493;28;20051;-90
2022/01/07 15:21:29;;;;;;;83.78;36.53;;;;;;;;;;5023176;28;20323;-91
2022/01/07 15:23:59;;;;;;;41.90;22.35;;;;;;;;;;5020603;28;20018;-90
2022/01/07 15:26:26;;;;;;;40.40;21.92;;;;;;;;;;5000102;28;20022;-90